Time;durP1;ratioP1;P1;durP2;ratioP2;P2;SDS_P1;SDS_P2;PMS_P1;PMS_P2;Temp;Humidity;BMP_temperature;BMP_pressure;BME280_temperature;BME280_humidity;BME280_pressure;Samples;Min_cycle;Max_cycle;Signal;HPM_P1;HPM_P2
2022/03/14 00:01:32;;;;;;;13.65;11.38;;;9.80;88.00;;;;;;5026520;28;20412;-75
2022/03/14 00:03:59;;;;;;;13.13;11.60;;;9.80;88.00;;;;;;5025710;28;20542;-74
2022/03/14 00:06:26;;;;;;;13.52;11.82;;;9.80;88.10;;;;;;5026339;28;20045;-74
2022/03/14 00:08:55;;;;;;;13.48;11.65;;;9.80;87.90;;;;;;5033574;28;20107;-73
2022/03/14 00:11:23;;;;;;;14.25;12.15;;;9.80;88.00;;;;;;5021662;28;20037;-73
2022/03/14 00:13:50;;;;;;;14.52;12.95;;;9.80;88.10;;;;;;5024331;28;20033;-73
2022/03/14 00:16:25;;;;;;;14.27;12.27;;;9.80;88.10;;;;;;5023588;28;20060;-73
2022/03/14 00:18:53;;;;;;;13.85;12.38;;;9.80;88.00;;;;;;5026724;28;20033;-73
2022/03/14 00:21:24;;;;;;;12.80;11.05;;;9.70;88.10;;;;;;5029697;28;20149;-73
2022/03/14 00:23:59;;;;;;;13.95;11.85;;;9.70;88.00;;;;;;5020128;28;20928;-73
2022/03/14 00:26:26;;;;;;;13.00;11.18;;;9.60;87.90;;;;;;5038202;28;20445;-73
2022/03/14 00:28:52;;;;;;;13.98;12.23;;;9.60;87.90;;;;;;5035885;28;20033;-73
2022/03/14 00:31:19;;;;;;;14.52;12.45;;;9.60;88.00;;;;;;5039349;28;20551;-72
2022/03/14 00:33:44;;;;;;;12.98;11.68;;;9.60;88.10;;;;;;5033550;28;20029;-73
2022/03/14 00:36:10;;;;;;;13.55;11.88;;;9.60;88.20;;;;;;5033582;28;20099;-72
2022/03/14 00:38:37;;;;;;;13.73;11.70;;;9.60;88.10;;;;;;5029452;28;20033;-72
2022/03/14 00:41:04;;;;;;;13.65;11.65;;;9.50;88.20;;;;;;5023175;28;20103;-73
2022/03/14 00:43:30;;;;;;;14.80;11.63;;;9.50;88.20;;;;;;5030786;28;20044;-72
2022/03/14 00:45:56;;;;;;;15.60;12.07;;;9.50;88.10;;;;;;5024869;28;20037;-72
2022/03/14 00:48:22;;;;;;;13.95;12.45;;;9.50;88.10;;;;;;5030083;28;20060;-73
2022/03/14 00:50:47;;;;;;;14.50;12.13;;;9.50;88.10;;;;;;5026797;28;20235;-73
2022/03/14 00:53:13;;;;;;;14.05;12.52;;;9.40;88.10;;;;;;5031671;28;20396;-72
2022/03/14 00:55:39;;;;;;;14.50;13.00;;;9.40;88.20;;;;;;5028759;28;20060;-73
2022/03/14 00:58:04;;;;;;;14.30;12.25;;;9.40;88.30;;;;;;5023986;28;20044;-73
2022/03/14 01:00:30;;;;;;;14.27;11.75;;;9.40;88.30;;;;;;5036585;28;20036;-72
2022/03/14 01:02:55;;;;;;;15.27;12.82;;;9.50;88.20;;;;;;5032207;28;20131;-72
2022/03/14 01:05:21;;;;;;;14.93;12.20;;;9.40;88.30;;;;;;5037649;28;20038;-72
2022/03/14 01:07:46;;;;;;;14.30;12.13;;;9.40;88.20;;;;;;5041934;28;20033;-73
2022/03/14 01:10:13;;;;;;;16.15;12.48;;;9.40;88.10;;;;;;5043139;28;20320;-73
2022/03/14 01:12:39;;;;;;;15.65;12.65;;;9.40;88.00;;;;;;5045678;28;20568;-73
2022/03/14 01:15:05;;;;;;;14.95;12.88;;;9.40;88.00;;;;;;5055859;28;20534;-72
2022/03/14 01:17:31;;;;;;;16.65;12.95;;;9.40;88.10;;;;;;5028221;28;20033;-72
2022/03/14 01:19:57;;;;;;;15.20;12.63;;;9.40;88.10;;;;;;5028246;28;20514;-72
2022/03/14 01:22:23;;;;;;;14.55;13.02;;;9.40;88.00;;;;;;5033114;28;20458;-72
2022/03/14 01:24:48;;;;;;;13.85;12.23;;;9.40;88.10;;;;;;5028713;28;20112;-73
2022/03/14 01:27:14;;;;;;;14.73;13.00;;;9.30;88.20;;;;;;5025205;28;20041;-72
2022/03/14 01:29:40;;;;;;;15.23;12.43;;;9.30;88.20;;;;;;5024259;28;20548;-72
2022/03/14 01:32:07;;;;;;;14.45;12.60;;;9.30;88.20;;;;;;5024357;28;20041;-72
2022/03/14 01:34:33;;;;;;;14.73;11.95;;;9.30;88.20;;;;;;5029416;28;20026;-72
2022/03/14 01:36:59;;;;;;;15.30;13.13;;;9.30;88.10;;;;;;5028136;28;20069;-72
2022/03/14 01:39:25;;;;;;;14.05;12.10;;;9.30;88.10;;;;;;5030668;28;20566;-72
2022/03/14 01:41:51;;;;;;;13.93;12.52;;;9.30;88.20;;;;;;5022266;28;20038;-72
2022/03/14 01:44:17;;;;;;;13.98;12.15;;;9.30;88.20;;;;;;5023654;28;20480;-72
2022/03/14 01:46:43;;;;;;;15.93;12.07;;;9.30;88.20;;;;;;5025962;28;20045;-72
2022/03/14 01:49:13;;;;;;;15.02;12.98;;;9.30;88.00;;;;;;5036072;28;20037;-72
2022/03/14 01:51:40;;;;;;;15.05;13.20;;;9.20;87.90;;;;;;5035789;28;20034;-72
2022/03/14 01:54:07;;;;;;;14.52;13.02;;;9.20;87.90;;;;;;5028325;28;20037;-72
2022/03/14 01:56:35;;;;;;;14.80;12.68;;;9.20;88.10;;;;;;5028061;28;20029;-72
2022/03/14 01:59:00;;;;;;;14.55;12.82;;;9.20;88.20;;;;;;5028364;28;20483;-72
2022/03/14 02:01:26;;;;;;;17.60;12.60;;;9.20;88.00;;;;;;5022012;28;20057;-72
2022/03/14 02:03:52;;;;;;;12.88;11.43;;;9.20;87.90;;;;;;5023621;28;20512;-72
2022/03/14 02:06:18;;;;;;;14.20;11.32;;;9.20;87.90;;;;;;5035830;28;20060;-72
2022/03/14 02:08:44;;;;;;;14.88;11.30;;;9.10;87.90;;;;;;5022632;28;20115;-72
2022/03/14 02:11:10;;;;;;;12.85;10.77;;;9.20;88.00;;;;;;5021816;28;20029;-72
2022/03/14 02:13:36;;;;;;;14.50;11.60;;;9.10;88.00;;;;;;5025955;28;20334;-72
2022/03/14 02:16:01;;;;;;;13.45;10.55;;;9.10;88.00;;;;;;5022934;28;20148;-73
2022/03/14 02:18:27;;;;;;;15.88;11.10;;;9.10;88.00;;;;;;5030644;28;20033;-72
2022/03/14 02:20:53;;;;;;;13.80;11.35;;;9.10;88.00;;;;;;5028259;28;20485;-72
2022/03/14 02:23:19;;;;;;;14.27;11.65;;;9.10;88.00;;;;;;5026248;28;20049;-72
2022/03/14 02:25:51;;;;;;;12.88;10.73;;;9.10;88.00;;;;;;5023840;28;20405;-72
2022/03/14 02:28:21;;;;;;;13.35;10.65;;;9.10;88.10;;;;;;5026879;28;20507;-72
2022/03/14 02:30:47;;;;;;;16.20;10.82;;;9.10;88.10;;;;;;5021097;28;20111;-72
2022/03/14 02:33:13;;;;;;;13.88;11.10;;;9.10;88.10;;;;;;5038367;28;20033;-72
2022/03/14 02:35:42;;;;;;;14.45;10.95;;;9.10;88.10;;;;;;5021206;28;20054;-72
2022/03/14 02:38:15;;;;;;;14.68;11.43;;;9.00;88.00;;;;;;5024783;28;20041;-72
2022/03/14 02:40:45;;;;;;;14.88;11.30;;;9.00;88.00;;;;;;5025765;28;20511;-72
2022/03/14 02:43:15;;;;;;;15.05;11.25;;;9.00;88.00;;;;;;5027107;28;20048;-72
2022/03/14 02:45:43;;;;;;;15.85;11.65;;;8.90;88.00;;;;;;5022323;28;20041;-72
2022/03/14 02:48:09;;;;;;;16.67;12.20;;;8.90;87.90;;;;;;5019632;28;20069;-72
2022/03/14 02:50:37;;;;;;;15.13;11.80;;;8.80;88.00;;;;;;5029990;28;20037;-73
2022/03/14 02:53:03;;;;;;;15.00;12.27;;;8.70;88.00;;;;;;5030407;28;20140;-73
2022/03/14 02:55:28;;;;;;;17.67;12.57;;;8.60;88.20;;;;;;5037408;28;20029;-74
2022/03/14 02:57:54;;;;;;;15.75;12.63;;;8.60;88.40;;;;;;5022083;28;20041;-73
2022/03/14 03:00:20;;;;;;;17.10;12.90;;;8.60;88.70;;;;;;5024753;28;20428;-73
2022/03/14 03:02:46;;;;;;;14.93;12.55;;;8.60;88.70;;;;;;5036483;28;20159;-72
2022/03/14 03:05:11;;;;;;;16.92;13.30;;;8.60;88.70;;;;;;5025826;28;20044;-73
2022/03/14 03:07:39;;;;;;;15.60;12.80;;;8.60;88.60;;;;;;5032369;28;20037;-72
2022/03/14 03:10:06;;;;;;;18.27;13.27;;;8.70;88.40;;;;;;5031893;28;20030;-73
2022/03/14 03:12:32;;;;;;;16.00;13.43;;;8.60;88.40;;;;;;5039498;28;20150;-73
2022/03/14 03:14:59;;;;;;;19.65;13.73;;;8.60;88.50;;;;;;5035910;28;20056;-73
2022/03/14 03:17:25;;;;;;;17.48;12.98;;;8.60;88.50;;;;;;5027116;28;20129;-72
2022/03/14 03:19:51;;;;;;;17.15;13.57;;;8.60;88.60;;;;;;5032912;28;20048;-73
2022/03/14 03:22:17;;;;;;;16.52;12.82;;;8.60;88.50;;;;;;5025271;28;20041;-73
2022/03/14 03:24:43;;;;;;;16.63;13.45;;;8.60;88.50;;;;;;5026810;28;20485;-73
2022/03/14 03:27:09;;;;;;;17.75;12.68;;;8.50;88.60;;;;;;5031456;28;20033;-73
2022/03/14 03:29:34;;;;;;;15.65;12.90;;;8.50;88.60;;;;;;5027522;28;20038;-73
2022/03/14 03:32:00;;;;;;;16.75;12.90;;;8.50;88.50;;;;;;5027602;28;20065;-73
2022/03/14 03:34:25;;;;;;;17.85;14.02;;;8.40;88.60;;;;;;5033971;28;20533;-72
2022/03/14 03:36:51;;;;;;;17.73;14.43;;;8.40;88.60;;;;;;5030843;28;20041;-72
2022/03/14 03:39:17;;;;;;;19.75;13.43;;;8.40;88.70;;;;;;5021845;28;20046;-73
2022/03/14 03:41:42;;;;;;;16.17;13.80;;;8.40;88.70;;;;;;5031205;28;20645;-73
2022/03/14 03:44:08;;;;;;;17.23;14.05;;;8.50;88.80;;;;;;5027522;28;20037;-73
2022/03/14 03:46:34;;;;;;;17.33;13.77;;;8.50;88.60;;;;;;5030998;28;20123;-72
2022/03/14 03:48:59;;;;;;;17.23;13.50;;;8.50;88.60;;;;;;5027490;28;20026;-73
2022/03/14 03:51:25;;;;;;;18.33;14.68;;;8.50;88.60;;;;;;5027923;28;20037;-73
2022/03/14 03:53:51;;;;;;;17.15;13.57;;;8.60;88.70;;;;;;5024084;28;20083;-71
2022/03/14 03:56:16;;;;;;;17.73;13.95;;;8.60;88.50;;;;;;5028973;28;20045;-72
2022/03/14 03:58:42;;;;;;;20.10;15.57;;;8.50;88.40;;;;;;5030081;28;20048;-72
2022/03/14 04:01:08;;;;;;;17.25;13.52;;;8.50;88.40;;;;;;5027245;28;20033;-74
2022/03/14 04:03:34;;;;;;;16.67;13.50;;;8.50;88.40;;;;;;5019966;28;20038;-74
2022/03/14 04:06:01;;;;;;;18.13;14.20;;;8.50;88.40;;;;;;5027669;28;20128;-72
2022/03/14 04:08:30;;;;;;;18.50;14.35;;;8.50;88.50;;;;;;5023012;28;20515;-74
2022/03/14 04:10:57;;;;;;;19.02;13.95;;;8.60;88.40;;;;;;5026270;28;20104;-73
2022/03/14 04:13:24;;;;;;;17.08;13.40;;;8.60;88.40;;;;;;5023360;28;20037;-73
2022/03/14 04:15:54;;;;;;;19.48;14.23;;;8.60;88.30;;;;;;5028975;28;20117;-73
2022/03/14 04:18:23;;;;;;;18.20;13.60;;;8.60;88.20;;;;;;5022898;28;20156;-73
2022/03/14 04:20:49;;;;;;;20.55;13.15;;;8.60;88.30;;;;;;5024803;28;20041;-73
2022/03/14 04:23:19;;;;;;;19.90;13.02;;;8.60;88.20;;;;;;5027179;28;20064;-73
2022/03/14 04:25:45;;;;;;;18.67;12.80;;;8.60;88.30;;;;;;5027215;28;20025;-73
2022/03/14 04:28:15;;;;;;;19.58;13.57;;;8.60;88.20;;;;;;5023064;28;20048;-73
2022/03/14 04:30:41;;;;;;;19.63;13.88;;;8.60;88.10;;;;;;5021616;28;20384;-73
2022/03/14 04:33:08;;;;;;;19.13;13.02;;;8.60;88.00;;;;;;5025646;28;20038;-73
2022/03/14 04:35:35;;;;;;;18.83;13.75;;;8.60;88.10;;;;;;5026049;28;20052;-73
2022/03/14 04:38:02;;;;;;;20.77;13.27;;;8.60;88.00;;;;;;5034952;28;20033;-73
2022/03/14 04:40:27;;;;;;;15.73;12.32;;;8.60;88.00;;;;;;5023482;28;20478;-73
2022/03/14 04:42:53;;;;;;;14.75;11.88;;;8.50;87.90;;;;;;5028267;28;20034;-73
2022/03/14 04:45:19;;;;;;;15.75;11.73;;;8.50;87.90;;;;;;5030230;28;20041;-73
2022/03/14 04:47:45;;;;;;;15.70;11.80;;;8.40;87.90;;;;;;5029736;28;20060;-73
2022/03/14 04:50:11;;;;;;;16.85;12.20;;;8.40;87.80;;;;;;5023390;28;20034;-73
2022/03/14 04:52:36;;;;;;;18.42;12.60;;;8.30;87.90;;;;;;5026313;28;20076;-73
2022/03/14 04:55:03;;;;;;;15.65;12.27;;;8.30;88.00;;;;;;5024901;28;20022;-73
2022/03/14 04:57:28;;;;;;;17.63;12.10;;;8.20;88.00;;;;;;5025572;28;20071;-73
2022/03/14 04:59:55;;;;;;;15.15;11.95;;;8.20;88.10;;;;;;5026021;28;20022;-73
2022/03/14 05:02:22;;;;;;;19.45;12.98;;;8.10;88.20;;;;;;5021256;28;20420;-73
2022/03/14 05:04:48;;;;;;;17.73;12.63;;;8.10;88.30;;;;;;5020455;28;20088;-73
2022/03/14 05:07:14;;;;;;;18.40;12.30;;;8.10;88.40;;;;;;5034293;28;20025;-73
2022/03/14 05:09:40;;;;;;;18.65;13.50;;;8.10;88.40;;;;;;5034059;28;20365;-73
2022/03/14 05:12:06;;;;;;;18.30;12.88;;;8.00;88.50;;;;;;5037012;28;20495;-73
2022/03/14 05:14:31;;;;;;;19.10;13.15;;;7.90;88.50;;;;;;5022290;28;20194;-73
2022/03/14 05:16:57;;;;;;;19.85;12.18;;;7.90;88.70;;;;;;5026389;28;20128;-73
2022/03/14 05:19:23;;;;;;;18.38;12.57;;;7.90;88.80;;;;;;5023085;28;20068;-74
2022/03/14 05:21:49;;;;;;;17.15;12.95;;;7.90;88.90;;;;;;5025476;28;20045;-75
2022/03/14 05:24:14;;;;;;;19.27;13.57;;;8.00;89.00;;;;;;5027883;28;20508;-74
2022/03/14 05:26:40;;;;;;;16.83;12.55;;;8.00;88.90;;;;;;5034626;28;20028;-75
2022/03/14 05:29:06;;;;;;;16.75;13.80;;;7.90;89.00;;;;;;5024256;28;20407;-75
2022/03/14 05:31:31;;;;;;;18.17;12.77;;;8.00;89.00;;;;;;5030079;28;20040;-75
2022/03/14 05:33:58;;;;;;;16.00;12.18;;;8.00;88.90;;;;;;5029704;28;20041;-75
2022/03/14 05:36:23;;;;;;;18.92;13.68;;;8.00;88.80;;;;;;5023223;28;20083;-75
2022/03/14 05:38:49;;;;;;;18.23;13.07;;;8.00;88.80;;;;;;5024612;28;20116;-76
2022/03/14 05:41:14;;;;;;;17.65;12.52;;;8.10;88.80;;;;;;5023479;28;20037;-76
2022/03/14 05:43:40;;;;;;;16.90;12.25;;;8.10;88.80;;;;;;5023892;28;20451;-76
2022/03/14 05:46:07;;;;;;;17.73;11.82;;;8.10;88.70;;;;;;5022023;28;20038;-75
2022/03/14 05:48:35;;;;;;;21.80;12.25;;;8.10;88.60;;;;;;5027893;28;20032;-75
2022/03/14 05:51:03;;;;;;;21.02;12.07;;;8.10;88.50;;;;;;5023294;28;20060;-76
2022/03/14 05:53:30;;;;;;;17.10;11.63;;;8.10;88.60;;;;;;5025224;28;20041;-75
2022/03/14 05:55:56;;;;;;;20.25;12.48;;;8.10;88.60;;;;;;5023122;28;20115;-76
2022/03/14 05:58:22;;;;;;;19.33;12.52;;;8.10;88.60;;;;;;5024779;28;20589;-76
2022/03/14 06:00:48;;;;;;;18.88;11.70;;;8.10;88.60;;;;;;5026870;28;20025;-75
2022/03/14 06:03:15;;;;;;;16.08;11.20;;;8.10;88.60;;;;;;5024747;28;20029;-75
2022/03/14 06:05:41;;;;;;;19.23;11.52;;;8.10;88.50;;;;;;5024077;28;20763;-76
2022/03/14 06:08:06;;;;;;;17.77;10.60;;;8.10;88.50;;;;;;5026433;28;20083;-74
2022/03/14 06:10:33;;;;;;;19.63;10.50;;;8.10;88.40;;;;;;5018342;28;20176;-76
2022/03/14 06:12:58;;;;;;;18.27;11.18;;;8.10;88.30;;;;;;5022782;28;20043;-74
2022/03/14 06:15:24;;;;;;;22.23;10.95;;;8.10;88.20;;;;;;5021701;28;20060;-74
2022/03/14 06:17:50;;;;;;;17.10;10.65;;;8.00;88.30;;;;;;5053274;28;20035;-75
2022/03/14 06:20:16;;;;;;;18.13;10.43;;;8.00;88.20;;;;;;5020310;28;20420;-74
2022/03/14 06:22:46;;;;;;;19.15;10.95;;;7.90;88.30;;;;;;5021010;28;20040;-77
2022/03/14 06:25:13;;;;;;;21.88;11.07;;;7.90;88.30;;;;;;5019018;28;20132;-75
2022/03/14 06:27:39;;;;;;;23.80;11.45;;;7.90;88.30;;;;;;5025376;28;20029;-76
2022/03/14 06:30:06;;;;;;;20.92;10.55;;;7.90;88.40;;;;;;5021980;28;20064;-76
2022/03/14 06:32:36;;;;;;;18.20;11.25;;;7.80;88.50;;;;;;5025380;28;20041;-76
2022/03/14 06:35:07;;;;;;;18.77;10.13;;;7.90;88.50;;;;;;5023326;28;20036;-76
2022/03/14 06:37:33;;;;;;;16.73;10.13;;;7.90;88.60;;;;;;5027457;28;20470;-76
2022/03/14 06:39:59;;;;;;;19.27;10.38;;;7.90;88.70;;;;;;5019271;28;20580;-75
2022/03/14 06:42:25;;;;;;;19.10;10.50;;;7.90;88.70;;;;;;5052607;28;20029;-74
2022/03/14 06:44:51;;;;;;;16.05;10.52;;;8.00;88.60;;;;;;5030437;28;20469;-74
2022/03/14 06:47:17;;;;;;;21.98;11.23;;;8.00;88.50;;;;;;5030031;28;20037;-74
2022/03/14 06:49:44;;;;;;;17.85;11.20;;;8.00;88.50;;;;;;5024362;28;20026;-76
2022/03/14 06:52:14;;;;;;;17.73;11.10;;;8.10;88.40;;;;;;5039566;28;20052;-76
2022/03/14 06:54:41;;;;;;;21.00;10.70;;;8.10;88.50;;;;;;5029408;28;20030;-77
2022/03/14 06:57:08;;;;;;;20.85;11.43;;;8.10;88.50;;;;;;5035803;28;20106;-76
2022/03/14 06:59:35;;;;;;;20.63;10.82;;;8.10;88.50;;;;;;5030195;28;20031;-77
2022/03/14 07:02:01;;;;;;;20.13;10.68;;;8.30;88.60;;;;;;5030255;28;20034;-79
2022/03/14 07:04:27;;;;;;;17.48;10.32;;;8.40;88.40;;;;;;5028568;28;20048;-78
2022/03/14 07:06:53;;;;;;;20.75;11.35;;;8.40;88.10;;;;;;5027673;28;20381;-78
2022/03/14 07:09:19;;;;;;;17.35;10.02;;;8.50;88.00;;;;;;5023984;28;20057;-78
2022/03/14 07:11:45;;;;;;;22.40;10.55;;;8.60;87.90;;;;;;5029458;28;20072;-78
2022/03/14 07:14:11;;;;;;;19.00;9.73;;;8.60;87.80;;;;;;5031996;28;20041;-77
2022/03/14 07:16:36;;;;;;;15.18;9.27;;;8.70;87.60;;;;;;5026530;28;20041;-78
2022/03/14 07:19:02;;;;;;;17.88;9.63;;;8.90;87.30;;;;;;5037203;28;20017;-78
2022/03/14 07:21:34;;;;;;;20.17;9.45;;;9.00;87.10;;;;;;5030625;28;20373;-79
2022/03/14 07:23:59;;;;;;;17.95;9.60;;;9.10;86.70;;;;;;5027609;28;20594;-80
2022/03/14 07:26:25;;;;;;;16.83;9.38;;;9.10;86.30;;;;;;5025854;28;20034;-79
2022/03/14 07:28:51;;;;;;;20.52;9.88;;;9.20;86.10;;;;;;5026095;28;20034;-77
2022/03/14 07:31:17;;;;;;;16.58;9.88;;;9.10;86.00;;;;;;5024510;28;20041;-79
2022/03/14 07:33:43;;;;;;;16.90;10.15;;;9.10;86.00;;;;;;5035796;28;20029;-77
2022/03/14 07:36:10;;;;;;;14.73;8.50;;;9.10;86.10;;;;;;5029854;28;20041;-76
2022/03/14 07:38:35;;;;;;;17.60;9.95;;;9.10;86.20;;;;;;5029974;28;20029;-78
2022/03/14 07:41:01;;;;;;;17.70;10.00;;;9.10;86.20;;;;;;5026984;28;20115;-77
2022/03/14 07:43:27;;;;;;;18.80;9.93;;;9.10;86.10;;;;;;5037084;28;20028;-78
2022/03/14 07:45:52;;;;;;;19.27;9.13;;;9.10;86.30;;;;;;5025812;28;20136;-77
2022/03/14 07:48:18;;;;;;;24.23;10.02;;;9.10;86.10;;;;;;5023575;28;20396;-77
2022/03/14 07:50:44;;;;;;;22.08;10.13;;;9.20;85.90;;;;;;5028501;28;20144;-79
2022/03/14 07:53:10;;;;;;;18.25;9.80;;;9.30;85.90;;;;;;5022858;28;20500;-78
2022/03/14 07:55:36;;;;;;;21.23;9.63;;;9.60;85.80;;;;;;5034228;28;20409;-78
2022/03/14 07:58:02;;;;;;;19.90;9.07;;;9.70;85.10;;;;;;5028277;28;20025;-79
2022/03/14 08:00:28;;;;;;;18.15;9.18;;;9.90;84.60;;;;;;5033064;28;20036;-77
2022/03/14 08:02:55;;;;;;;16.50;9.07;;;10.10;83.50;;;;;;5033153;28;20426;-79
2022/03/14 08:05:24;;;;;;;19.17;8.23;;;10.20;83.50;;;;;;5022826;28;20036;-77
2022/03/14 08:07:51;;;;;;;17.55;8.73;;;10.20;82.90;;;;;;5020693;28;20088;-78
2022/03/14 08:10:18;;;;;;;17.60;9.82;;;10.10;83.30;;;;;;5020708;28;20036;-78
2022/03/14 08:12:55;;;;;;;17.48;8.70;;;10.10;83.20;;;;;;5027493;28;20437;-77
2022/03/14 08:15:29;;;;;;;19.52;8.80;;;10.10;83.60;;;;;;5021596;28;20394;-77
2022/03/14 08:18:00;;;;;;;16.92;8.82;;;10.20;83.70;;;;;;5024155;28;20033;-78
2022/03/14 08:20:27;;;;;;;18.58;9.00;;;10.20;83.60;;;;;;5021096;28;20038;-78
2022/03/14 08:22:54;;;;;;;23.02;9.23;;;10.30;83.40;;;;;;5022730;28;20372;-75
2022/03/14 08:25:21;;;;;;;22.13;9.10;;;10.30;83.50;;;;;;5021994;28;20056;-76
2022/03/14 08:27:47;;;;;;;22.23;8.95;;;10.30;83.40;;;;;;5019002;28;20033;-76
2022/03/14 08:30:13;;;;;;;18.33;8.55;;;10.40;83.30;;;;;;5027003;28;20025;-77
2022/03/14 08:32:39;;;;;;;22.13;9.18;;;10.50;83.10;;;;;;5023763;28;20037;-79
2022/03/14 08:35:08;;;;;;;19.80;7.50;;;10.60;83.30;;;;;;5027141;28;20056;-77
2022/03/14 08:37:41;;;;;;;19.45;8.88;;;10.60;82.80;;;;;;5023891;28;20041;-76
2022/03/14 08:40:10;;;;;;;24.58;8.13;;;10.50;82.50;;;;;;5018396;28;20030;-79
2022/03/14 08:42:37;;;;;;;19.83;7.70;;;10.50;82.60;;;;;;5029415;28;20056;-76
2022/03/14 08:45:04;;;;;;;21.13;7.35;;;10.40;82.70;;;;;;5022777;28;20041;-78
2022/03/14 08:47:30;;;;;;;20.73;7.78;;;10.50;82.60;;;;;;5028632;28;20064;-78
2022/03/14 08:49:56;;;;;;;20.40;7.80;;;10.50;82.70;;;;;;5021748;28;20044;-79
2022/03/14 08:52:22;;;;;;;21.45;7.95;;;10.60;83.00;;;;;;5019159;28;20033;-79
2022/03/14 08:54:47;;;;;;;19.30;7.65;;;10.80;82.50;;;;;;5018718;28;21516;-79
2022/03/14 08:57:14;;;;;;;19.88;7.18;;;11.00;82.20;;;;;;5019456;28;20600;-78
2022/03/14 08:59:40;;;;;;;21.10;7.15;;;11.10;81.20;;;;;;5022280;28;20045;-80
2022/03/14 09:02:08;;;;;;;23.30;7.05;;;11.10;80.70;;;;;;5025650;28;20385;-79
2022/03/14 09:04:34;;;;;;;24.33;7.93;;;11.20;80.70;;;;;;5026128;28;20497;-79
2022/03/14 09:06:59;;;;;;;23.80;7.65;;;11.20;80.80;;;;;;5044155;28;20029;-78
2022/03/14 09:09:25;;;;;;;18.95;7.35;;;11.40;80.50;;;;;;5049517;28;20017;-77
2022/03/14 09:11:51;;;;;;;20.15;6.65;;;11.50;79.70;;;;;;5051901;28;20099;-79
2022/03/14 09:14:16;;;;;;;15.45;6.30;;;11.60;79.70;;;;;;5044518;28;20029;-77
2022/03/14 09:16:42;;;;;;;20.92;6.50;;;11.60;78.60;;;;;;5023491;28;20062;-78
2022/03/14 09:19:08;;;;;;;22.80;6.65;;;11.60;78.50;;;;;;5032108;28;20429;-78
2022/03/14 09:21:33;;;;;;;20.30;6.20;;;11.60;78.20;;;;;;5017978;28;20495;-79
2022/03/14 09:24:00;;;;;;;24.65;6.70;;;11.60;78.50;;;;;;5018213;28;20504;-80
2022/03/14 09:26:25;;;;;;;17.73;5.40;;;11.50;78.90;;;;;;5021522;28;20059;-79
2022/03/14 09:28:51;;;;;;;19.08;6.28;;;11.50;78.80;;;;;;5026910;28;20432;-79
2022/03/14 09:31:17;;;;;;;23.15;6.13;;;11.60;79.10;;;;;;5026180;28;20052;-79
2022/03/14 09:33:43;;;;;;;19.35;6.05;;;11.60;78.40;;;;;;5027155;28;20120;-79
2022/03/14 09:36:09;;;;;;;22.70;6.70;;;11.50;78.50;;;;;;5023151;28;20044;-79
2022/03/14 09:38:35;;;;;;;16.13;7.10;;;11.50;78.80;;;;;;5018032;28;20032;-78
2022/03/14 09:41:03;;;;;;;20.75;6.32;;;11.60;78.90;;;;;;5021571;28;20028;-77
2022/03/14 09:43:31;;;;;;;18.90;5.75;;;11.60;77.70;;;;;;5033030;28;20038;-79
2022/03/14 09:45:58;;;;;;;16.90;5.78;;;11.60;77.80;;;;;;5025092;28;20106;-79
2022/03/14 09:48:24;;;;;;;19.77;5.82;;;11.60;77.50;;;;;;5028309;28;20040;-79
2022/03/14 09:50:52;;;;;;;15.65;5.47;;;11.50;77.30;;;;;;5031048;28;20037;-79
2022/03/14 09:53:18;;;;;;;16.17;5.53;;;11.60;78.00;;;;;;5018505;28;20506;-77
2022/03/14 09:55:46;;;;;;;17.65;5.82;;;11.90;77.10;;;;;;5022267;28;20037;-80
2022/03/14 09:58:20;;;;;;;15.52;5.32;;;12.10;76.70;;;;;;5019293;28;20117;-80
2022/03/14 10:00:47;;;;;;;16.67;6.30;;;12.30;76.60;;;;;;5017600;28;20022;-77
2022/03/14 10:03:15;;;;;;;17.02;6.00;;;12.50;75.80;;;;;;5029118;28;20029;-78
2022/03/14 10:05:45;;;;;;;21.02;6.60;;;12.70;74.90;;;;;;5012191;28;20033;-78
2022/03/14 10:08:12;;;;;;;16.63;5.78;;;12.90;74.60;;;;;;5023019;28;20378;-79
2022/03/14 10:10:39;;;;;;;19.52;6.07;;;12.70;74.00;;;;;;5026074;28;20033;-79
2022/03/14 10:13:10;;;;;;;19.08;6.55;;;12.80;74.90;;;;;;5020981;28;20018;-78
2022/03/14 10:15:40;;;;;;;17.90;6.25;;;12.90;73.80;;;;;;5021729;28;20029;-79
2022/03/14 10:18:13;;;;;;;14.98;5.80;;;13.00;74.30;;;;;;5021917;28;20040;-78
2022/03/14 10:21:05;;;;;;;16.90;6.40;;;12.90;74.20;;;;;;5021495;28;20021;-79
2022/03/14 10:23:35;;;;;;;16.80;7.32;;;12.70;73.70;;;;;;5016381;28;20108;-78
2022/03/14 10:26:01;;;;;;;19.85;7.53;;;12.90;74.20;;;;;;5023860;28;20042;-78
2022/03/14 10:28:32;;;;;;;19.05;8.05;;;12.90;73.50;;;;;;5016503;28;20068;-79
2022/03/14 10:31:02;;;;;;;23.63;8.48;;;12.90;73.80;;;;;;5015548;28;20041;-79
2022/03/14 10:33:30;;;;;;;20.98;8.43;;;12.90;74.00;;;;;;5023247;28;20117;-78
2022/03/14 10:35:57;;;;;;;20.80;9.00;;;13.10;72.40;;;;;;5019405;28;20045;-79
2022/03/14 10:38:25;;;;;;;17.65;7.70;;;12.70;72.50;;;;;;5015531;28;20065;-79
2022/03/14 10:40:51;;;;;;;15.90;7.65;;;12.80;72.10;;;;;;5020272;28;20029;-77
2022/03/14 10:43:32;;;;;;;17.85;8.30;;;12.80;72.40;;;;;;5024716;28;20382;-78
2022/03/14 10:45:59;;;;;;;16.83;8.45;;;12.80;72.70;;;;;;5016756;28;20053;-78
2022/03/14 10:48:38;;;;;;;20.80;8.60;;;12.70;73.10;;;;;;5020340;28;20021;-79
2022/03/14 10:51:06;;;;;;;21.70;8.10;;;12.90;73.10;;;;;;5018065;28;20036;-78
2022/03/14 10:53:34;;;;;;;19.88;8.88;;;13.00;72.50;;;;;;5020934;28;20052;-77
2022/03/14 10:56:01;;;;;;;18.58;8.82;;;13.10;72.90;;;;;;5018360;28;20040;-76
2022/03/14 10:58:33;;;;;;;21.42;8.52;;;13.20;71.70;;;;;;5021257;28;20025;-77
2022/03/14 11:01:00;;;;;;;19.40;8.18;;;13.60;71.20;;;;;;5015403;28;20049;-78
2022/03/14 11:03:33;;;;;;;18.23;7.82;;;13.40;70.70;;;;;;5016664;28;20033;-78
2022/03/14 11:06:04;;;;;;;16.10;7.85;;;13.50;70.70;;;;;;5013304;28;20253;-79
2022/03/14 11:08:39;;;;;;;16.50;6.72;;;14.00;69.40;;;;;;5015516;28;20025;-79
2022/03/14 11:11:11;;;;;;;17.27;6.20;;;14.10;68.00;;;;;;5032890;28;20029;-77
2022/03/14 11:13:42;;;;;;;15.77;6.95;;;13.90;68.00;;;;;;5031597;28;20057;-78
2022/03/14 11:16:13;;;;;;;17.67;5.97;;;13.80;69.00;;;;;;5029646;28;20095;-77
2022/03/14 11:18:39;;;;;;;16.35;5.88;;;13.80;68.90;;;;;;5022715;28;20029;-78
2022/03/14 11:21:07;;;;;;;16.38;5.90;;;13.90;68.90;;;;;;5027528;28;20040;-78
2022/03/14 11:23:35;;;;;;;20.65;5.90;;;14.10;67.80;;;;;;5021556;28;20018;-78
2022/03/14 11:26:01;;;;;;;16.52;5.53;;;14.10;66.10;;;;;;5020549;28;20048;-76
2022/03/14 11:28:30;;;;;;;16.55;5.90;;;14.30;66.20;;;;;;5022338;28;20030;-79
2022/03/14 11:31:01;;;;;;;14.35;5.68;;;14.30;66.00;;;;;;5020558;28;20765;-78
2022/03/14 11:33:29;;;;;;;14.00;5.30;;;14.40;65.70;;;;;;5009747;28;20092;-78
2022/03/14 11:35:54;;;;;;;16.30;5.72;;;14.10;65.30;;;;;;5021906;28;20082;-77
2022/03/14 11:38:20;;;;;;;18.98;5.03;;;13.80;65.50;;;;;;5014406;28;20037;-76
2022/03/14 11:40:48;;;;;;;15.70;5.60;;;13.70;65.80;;;;;;5021894;28;20335;-77
2022/03/14 11:43:14;;;;;;;13.65;5.10;;;13.60;67.10;;;;;;5021515;28;20276;-78
2022/03/14 11:45:40;;;;;;;17.42;5.85;;;13.90;66.80;;;;;;5016716;28;20060;-79
2022/03/14 11:48:07;;;;;;;17.80;5.50;;;14.40;67.00;;;;;;5020754;28;20029;-78
2022/03/14 11:50:59;;;;;;;16.35;5.78;;;14.50;63.80;;;;;;5022468;28;20033;-77
2022/03/14 11:53:26;;;;;;;13.80;5.60;;;14.20;65.10;;;;;;5021524;28;20464;-77
2022/03/14 11:55:55;;;;;;;18.30;5.40;;;14.10;65.40;;;;;;5020772;28;20354;-78
2022/03/14 11:58:48;;;;;;;14.82;5.40;;;14.20;65.00;;;;;;5021004;28;20042;-77
2022/03/14 12:01:22;;;;;;;16.42;5.00;;;14.10;65.40;;;;;;5016088;28;20112;-78
2022/03/14 12:03:59;;;;;;;12.38;5.70;;;14.50;65.80;;;;;;5021036;28;20035;-78
2022/03/14 12:06:46;;;;;;;16.52;4.75;;;15.00;65.20;;;;;;5021929;28;20480;-79
2022/03/14 12:09:24;;;;;;;17.73;4.85;;;15.50;62.70;;;;;;5016968;28;20453;-78
2022/03/14 12:11:54;;;;;;;15.40;4.43;;;15.20;61.60;;;;;;5016209;28;20269;-77
2022/03/14 12:14:43;;;;;;;11.35;3.90;;;14.90;61.00;;;;;;5018334;28;20211;-78
2022/03/14 12:17:15;;;;;;;12.38;3.75;;;14.40;62.50;;;;;;5019131;28;20261;-77
2022/03/14 12:19:48;;;;;;;14.00;4.28;;;14.60;62.70;;;;;;5016799;28;20043;-79
2022/03/14 12:22:24;;;;;;;12.00;3.33;;;14.90;62.40;;;;;;5018972;28;20038;-76
2022/03/14 12:24:50;;;;;;;11.95;3.60;;;15.10;60.50;;;;;;5028759;28;20322;-78
2022/03/14 12:27:26;;;;;;;10.55;3.97;;;15.30;59.50;;;;;;5032582;28;20411;-77
2022/03/14 12:29:54;;;;;;;9.52;3.78;;;15.60;59.40;;;;;;5020619;28;20029;-77
2022/03/14 12:32:44;;;;;;;9.35;3.20;;;15.30;58.70;;;;;;5019810;28;20432;-77
2022/03/14 12:35:26;;;;;;;12.13;3.53;;;15.00;58.90;;;;;;5012157;28;20064;-77
2022/03/14 12:37:59;;;;;;;10.60;2.97;;;14.60;58.80;;;;;;5020813;28;20049;-80
2022/03/14 12:40:25;;;;;;;12.93;4.00;;;14.40;59.30;;;;;;5020522;28;20105;-77